ESNQ Airport Information

Runway Information
Runway 03 Length 8209 ft width 148 ft
Elevation 1508 ft Threshold ft Heading 34
Runway 21 Length 8209 ft Width 148 ft
Elevation 1432 ft Threshold ft Heading 214
Airport Frequencies
Type TWR Name TWR Frequency 130.15 MHZ
Airport Navaids
Type VOR-DME Name Kiruna Frequency 115200 KHZ
Type NDB Name Kiruna Frequency 360 KHZ
Airport Weather Information & NOTAM
ADDS - METARS form results

(1400 UTC 26 June 2022)
Data provider http://aviationweather.gov/metar/data/
 
METAR text: ESNQ 261350Z 02006KT 350V080 CAVOK 25/09 Q1019
Conditions at: ESNQ (KIRUNA AIRPORT , SE) observed 1350 UTC 26 June 2022
Temperature: 25.0°C (77°F)
Dewpoint: 9.0°C (48°F) [RH = 36%]
Pressure (altimeter): 30.09 inches Hg (1019.0 mb)
Winds: from the NNE (20 degrees) at 7 MPH (6 knots; 3.1 m/s)
Visibility: 6 or more miles (10+ km)
Ceiling: ceiling and visibility are OK
Clouds: unknown
Weather: no significant weather observed at this time

METAR text: ESNQ 261320Z 04006KT CAVOK 25/09 Q1019
Conditions at: ESNQ (KIRUNA AIRPORT , SE) observed 1320 UTC 26 June 2022
Temperature: 25.0°C (77°F)
Dewpoint: 9.0°C (48°F) [RH = 36%]
Pressure (altimeter): 30.09 inches Hg (1019.0 mb)
Winds: from the NE (40 degrees) at 7 MPH (6 knots; 3.1 m/s)
Visibility: 6 or more miles (10+ km)
Ceiling: ceiling and visibility are OK
Clouds: unknown
Weather: no significant weather observed at this time

Forecast for: ESNQ (KIRUNA AIRPORT , SE)
Text: TAF ESNQ 261130Z 2612/2620 02008KT CAVOK
Forecast period: 1200 to 2000 UTC 26 June 2022
Forecast type: FROM: standard forecast or significant change
Winds: from the NNE (20 degrees) at 9 MPH (8 knots; 4.1 m/s)
Visibility: 6 or more miles (10+ km)
Ceiling: unknown
Clouds: missing
Weather: NSW  (no significant weather)